首页
METAR-TAF:

METAR-TAF

机场 :

佩皮尼昂, 法国

纬度: 42-44N, 经度: 002-52E, 海拔: 43米

当前天气观测

该预报发布于30分钟前的22:00 UTC
风速7节,风向西北,在西北转西北之间变化
温度 13°C
湿度 58%
气压 1015 hPa
能见度10公里或以上
少量云层高于3800英尺
多云层高于9000英尺
阴天层高于10000英尺

METAR: LFMP 292200Z AUTO 31007KT 280V340 9999 FEW038 BKN090 OVC100 13/05 Q1015

时间: 00:30 (22:30 UTC)


TAF: 丢失

超过4000个机场的气象观测和天气预报(METAR&TAF报告)。

可查询的气象台以黄色和红色小点在地图上表示。

将鼠标移到小点上方,可查看气象台名称。

然后点击查看天气观测和预报。

如需切换地图:点击带黑十字的绿色按钮放大地图;点击带横线的绿色按钮缩小地图;或者点击绿色箭头查看邻近地区的地图。


METAR-TAF: